Time;durP1;ratioP1;P1;durP2;ratioP2;P2;SDS_P1;SDS_P2;PMS_P1;PMS_P2;Temp;Humidity;BMP_temperature;BMP_pressure;BME280_temperature;BME280_humidity;BME280_pressure;Samples;Min_cycle;Max_cycle;Signal;HPM_P1;HPM_P2
2024/01/22 00:01:05;;;;;;;8.80;6.78;;;3.20;1.00;;;;;;5073719;27;20720;-72
2024/01/22 00:03:33;;;;;;;7.50;6.70;;;3.20;1.00;;;;;;5071415;28;20253;-74
2024/01/22 00:06:00;;;;;;;7.28;6.10;;;3.20;1.00;;;;;;5073319;27;20224;-75
2024/01/22 00:08:27;;;;;;;8.27;6.57;;;3.20;1.00;;;;;;5072711;28;20241;-73
2024/01/22 00:10:55;;;;;;;6.88;6.18;;;3.20;1.00;;;;;;5069258;27;20448;-74
2024/01/22 00:13:23;;;;;;;10.20;6.82;;;3.20;1.00;;;;;;5071299;28;20330;-73
2024/01/22 00:15:49;;;;;;;7.97;6.72;;;3.20;1.00;;;;;;5067995;28;20752;-74
2024/01/22 00:18:17;;;;;;;9.05;6.07;;;3.20;1.00;;;;;;5073255;28;20324;-79
2024/01/22 00:20:44;;;;;;;6.88;6.18;;;3.20;1.00;;;;;;5057393;28;20264;-72
2024/01/22 00:23:12;;;;;;;8.18;6.28;;;3.10;1.00;;;;;;5068567;28;20247;-75
2024/01/22 00:25:40;;;;;;;7.18;6.18;;;3.10;1.00;;;;;;5071480;27;20327;-73
2024/01/22 00:28:09;;;;;;;8.15;6.95;;;3.10;1.00;;;;;;5072998;27;20268;-73
2024/01/22 00:30:36;;;;;;;8.27;6.70;;;3.10;1.00;;;;;;5072089;28;20275;-71
2024/01/22 00:33:03;;;;;;;6.80;5.85;;;3.10;1.00;;;;;;5071157;27;20243;-73
2024/01/22 00:35:31;;;;;;;7.55;6.72;;;3.10;1.00;;;;;;5069781;28;20236;-77
2024/01/22 00:37:58;;;;;;;10.27;7.10;;;3.10;1.00;;;;;;5064840;27;20242;-77
2024/01/22 00:40:25;;;;;;;7.82;7.13;;;3.10;1.00;;;;;;5058828;28;20348;-76
2024/01/22 00:42:52;;;;;;;7.50;6.32;;;3.10;1.00;;;;;;5071482;27;20236;-76
2024/01/22 00:45:20;;;;;;;8.70;6.65;;;3.10;1.00;;;;;;5067397;28;20245;-78
2024/01/22 00:47:47;;;;;;;6.90;6.20;;;3.00;1.00;;;;;;5069099;28;20818;-76
2024/01/22 00:50:14;;;;;;;7.70;6.90;;;3.00;1.00;;;;;;5066771;28;20315;-76
2024/01/22 00:52:41;;;;;;;10.18;6.32;;;3.00;1.00;;;;;;5061046;28;20237;-76
2024/01/22 00:55:09;;;;;;;6.60;6.00;;;3.00;1.00;;;;;;5068827;28;20328;-77
2024/01/22 00:57:37;;;;;;;6.50;5.85;;;3.10;1.00;;;;;;5067745;28;20343;-76
2024/01/22 01:00:07;;;;;;;6.93;6.28;;;3.10;1.00;;;;;;5069618;27;20456;-76
2024/01/22 01:02:35;;;;;;;6.82;5.10;;;3.10;1.00;;;;;;5067087;28;20296;-76
2024/01/22 01:05:03;;;;;;;7.38;6.50;;;3.20;1.00;;;;;;5068716;27;20240;-75
2024/01/22 01:07:30;;;;;;;10.18;6.40;;;3.20;1.00;;;;;;5066679;27;20315;-77
2024/01/22 01:09:56;;;;;;;6.70;5.97;;;3.20;1.00;;;;;;5066967;28;20692;-77
2024/01/22 01:12:24;;;;;;;7.15;5.55;;;3.20;1.00;;;;;;5070382;28;20911;-76
2024/01/22 01:14:50;;;;;;;11.85;6.20;;;3.30;1.00;;;;;;5065494;28;20264;-77
2024/01/22 01:17:17;;;;;;;6.30;5.70;;;3.30;1.00;;;;;;5065380;28;20257;-76
2024/01/22 01:19:46;;;;;;;7.00;6.15;;;3.30;1.00;;;;;;5068356;27;21074;-76
2024/01/22 01:22:13;;;;;;;8.82;6.20;;;3.40;1.00;;;;;;5070724;27;20562;-77
2024/01/22 01:24:41;;;;;;;6.05;5.43;;;3.40;1.00;;;;;;5066194;27;20292;-77
2024/01/22 01:27:09;;;;;;;6.60;5.78;;;3.40;1.00;;;;;;5070401;28;21528;-77
2024/01/22 01:29:38;;;;;;;7.18;5.65;;;3.40;1.00;;;;;;5070120;28;20275;-76
2024/01/22 01:32:07;;;;;;;9.07;5.80;;;3.50;1.00;;;;;;5063679;28;20972;-76
2024/01/22 01:34:35;;;;;;;6.55;5.53;;;3.60;1.00;;;;;;5068162;28;20331;-75
2024/01/22 01:37:04;;;;;;;7.68;5.85;;;3.60;1.00;;;;;;5069246;28;21043;-76
2024/01/22 01:39:31;;;;;;;7.00;5.15;;;3.60;1.00;;;;;;5070653;28;20322;-76
2024/01/22 01:41:58;;;;;;;9.02;5.60;;;3.60;1.00;;;;;;5067689;27;20240;-75
2024/01/22 01:44:50;;;;;;;7.32;5.80;;;3.60;1.00;;;;;;5066326;28;20339;-76
2024/01/22 01:47:18;;;;;;;5.70;5.20;;;3.70;1.00;;;;;;5061242;28;21046;-75
2024/01/22 01:49:47;;;;;;;6.93;4.85;;;3.70;1.00;;;;;;5068495;28;20233;-76
2024/01/22 01:52:19;;;;;;;5.82;5.25;;;3.70;1.00;;;;;;5070194;28;20241;-75
2024/01/22 01:54:47;;;;;;;6.25;5.10;;;3.70;1.00;;;;;;5067929;28;20248;-77
2024/01/22 01:57:14;;;;;;;6.45;5.57;;;3.70;1.00;;;;;;5067178;28;20237;-76
2024/01/22 01:59:42;;;;;;;6.82;5.32;;;3.70;1.00;;;;;;5069616;27;20865;-75
2024/01/22 02:02:09;;;;;;;5.82;5.22;;;3.70;1.00;;;;;;5069168;27;20303;-75
2024/01/22 02:04:38;;;;;;;5.60;5.10;;;3.80;1.00;;;;;;5068952;28;20680;-75
2024/01/22 02:07:05;;;;;;;5.13;4.63;;;3.80;1.00;;;;;;5064479;27;20236;-76
2024/01/22 02:09:50;;;;;;;5.32;4.85;;;3.80;1.00;;;;;;5067795;28;21107;-76
2024/01/22 02:12:18;;;;;;;6.07;4.72;;;3.80;1.00;;;;;;5067333;28;20329;-76
2024/01/22 02:14:46;;;;;;;5.55;5.10;;;3.80;1.00;;;;;;5068164;28;20712;-76
2024/01/22 02:17:13;;;;;;;6.15;5.43;;;3.80;1.00;;;;;;5067249;28;20233;-78
2024/01/22 02:19:41;;;;;;;5.10;4.60;;;3.80;1.00;;;;;;5068613;28;20317;-75
2024/01/22 02:22:08;;;;;;;6.10;5.50;;;3.80;1.00;;;;;;5060200;27;20240;-79
2024/01/22 02:24:37;;;;;;;6.43;5.78;;;3.80;1.00;;;;;;5069684;27;20248;-76
2024/01/22 02:27:04;;;;;;;5.68;5.05;;;3.90;1.00;;;;;;5068386;28;20605;-75
2024/01/22 02:29:32;;;;;;;5.85;4.80;;;3.90;1.00;;;;;;5067291;28;20815;-76
2024/01/22 02:31:59;;;;;;;6.90;4.90;;;4.00;1.00;;;;;;5063978;27;20239;-76
2024/01/22 02:34:26;;;;;;;6.22;5.25;;;4.00;1.00;;;;;;5066429;27;20272;-77
2024/01/22 02:36:53;;;;;;;6.32;5.72;;;4.00;1.00;;;;;;5066208;27;20230;-76
2024/01/22 02:39:20;;;;;;;6.45;5.20;;;4.10;1.00;;;;;;5066159;28;20264;-79
2024/01/22 02:41:49;;;;;;;6.43;5.30;;;4.10;1.00;;;;;;5065462;28;20257;-77
2024/01/22 02:44:17;;;;;;;6.75;5.28;;;4.20;1.00;;;;;;5063028;28;20828;-77
2024/01/22 02:46:44;;;;;;;5.25;4.75;;;4.20;1.00;;;;;;5066505;27;20330;-75
2024/01/22 02:49:11;;;;;;;5.68;4.30;;;4.30;1.00;;;;;;5064646;28;20232;-76
2024/01/22 02:51:37;;;;;;;5.32;4.82;;;4.30;1.00;;;;;;5067452;28;20306;-76
2024/01/22 02:54:05;;;;;;;6.90;5.22;;;4.40;1.00;;;;;;5065391;28;20306;-74
2024/01/22 02:56:32;;;;;;;6.13;5.15;;;4.40;1.00;;;;;;5071558;28;20229;-72
2024/01/22 02:59:01;;;;;;;7.13;4.88;;;4.40;1.00;;;;;;5066420;28;20777;-73
2024/01/22 03:01:28;;;;;;;9.23;4.80;;;4.40;1.00;;;;;;5064225;27;20390;-74
2024/01/22 03:03:54;;;;;;;5.38;4.88;;;4.50;1.00;;;;;;5064856;28;20236;-73
2024/01/22 03:06:21;;;;;;;5.28;4.80;;;4.50;1.00;;;;;;5068882;28;20236;-73
2024/01/22 03:08:49;;;;;;;5.03;4.53;;;4.50;1.00;;;;;;5068282;28;20241;-72
2024/01/22 03:11:16;;;;;;;4.25;3.85;;;4.60;1.00;;;;;;5067317;28;20724;-73
2024/01/22 03:13:42;;;;;;;5.20;4.30;;;4.60;1.00;;;;;;5058096;28;20408;-76
2024/01/22 03:16:10;;;;;;;8.90;5.00;;;4.60;1.00;;;;;;5066316;28;20610;-73
2024/01/22 03:18:37;;;;;;;7.25;4.97;;;4.70;1.00;;;;;;5067626;28;20314;-71
2024/01/22 03:21:05;;;;;;;4.82;4.40;;;4.70;1.00;;;;;;5065135;28;20318;-72
2024/01/22 03:23:33;;;;;;;5.57;5.00;;;4.70;1.00;;;;;;5060456;28;20230;-73
2024/01/22 03:26:00;;;;;;;5.32;4.70;;;4.70;1.00;;;;;;5064853;28;20260;-72
2024/01/22 03:28:27;;;;;;;5.68;5.13;;;4.80;1.00;;;;;;5068768;28;20308;-75
2024/01/22 03:30:54;;;;;;;7.07;4.90;;;4.80;1.00;;;;;;5065441;28;20247;-77
2024/01/22 03:33:22;;;;;;;7.10;5.20;;;4.90;1.00;;;;;;5066459;28;20237;-74
2024/01/22 03:35:49;;;;;;;5.07;4.57;;;5.00;1.00;;;;;;5070921;28;20717;-75
2024/01/22 03:38:16;;;;;;;7.05;4.47;;;4.90;1.00;;;;;;5070074;28;20236;-71
2024/01/22 03:40:44;;;;;;;7.68;4.53;;;4.90;1.00;;;;;;5073034;27;20237;-73
2024/01/22 03:43:10;;;;;;;4.85;4.40;;;5.00;1.00;;;;;;5067666;28;20287;-75
2024/01/22 03:45:40;;;;;;;6.10;4.60;;;5.00;1.00;;;;;;5069026;28;20237;-72
2024/01/22 03:48:08;;;;;;;7.45;6.65;;;5.00;1.00;;;;;;5067108;28;20239;-76
2024/01/22 03:50:36;;;;;;;5.85;4.30;;;5.00;1.00;;;;;;5071431;28;20816;-72
2024/01/22 03:53:03;;;;;;;5.07;4.35;;;5.10;1.00;;;;;;5068836;27;20240;-72
2024/01/22 03:55:32;;;;;;;5.50;4.55;;;5.10;1.00;;;;;;5070474;27;20244;-72
2024/01/22 03:57:58;;;;;;;5.53;4.57;;;5.10;1.00;;;;;;5069577;27;21041;-76
2024/01/22 04:00:26;;;;;;;4.90;4.40;;;5.10;1.00;;;;;;5069187;28;20729;-73
2024/01/22 04:02:52;;;;;;;6.25;4.25;;;5.20;1.00;;;;;;5071117;28;20324;-71
2024/01/22 04:05:20;;;;;;;5.28;3.88;;;5.20;1.00;;;;;;5069036;28;20265;-77
2024/01/22 04:07:48;;;;;;;3.90;3.58;;;5.20;1.00;;;;;;5071543;27;20333;-71
2024/01/22 04:10:15;;;;;;;5.32;4.82;;;5.20;1.00;;;;;;5063008;28;20261;-74
2024/01/22 04:12:42;;;;;;;6.90;4.90;;;5.20;1.00;;;;;;5068618;28;21123;-73
2024/01/22 04:15:10;;;;;;;6.00;4.28;;;5.20;1.00;;;;;;5069481;27;20699;-77
2024/01/22 04:17:37;;;;;;;4.38;3.97;;;5.10;1.00;;;;;;5067398;28;20269;-72
2024/01/22 04:20:04;;;;;;;4.40;3.92;;;5.00;1.00;;;;;;5072448;28;20292;-74
2024/01/22 04:22:31;;;;;;;4.32;3.92;;;4.90;1.00;;;;;;5070217;27;20294;-73
2024/01/22 04:25:02;;;;;;;4.85;4.35;;;4.80;1.00;;;;;;5067834;28;20242;-72
2024/01/22 04:27:29;;;;;;;5.70;5.10;;;4.80;1.00;;;;;;5070013;28;20248;-74
2024/01/22 04:29:56;;;;;;;5.32;4.40;;;4.80;1.00;;;;;;5050985;28;20241;-74
2024/01/22 04:32:23;;;;;;;5.20;4.32;;;4.80;1.00;;;;;;5063854;28;20322;-73
2024/01/22 04:34:50;;;;;;;4.10;3.70;;;4.80;1.00;;;;;;5071266;27;20291;-72
2024/01/22 04:37:18;;;;;;;4.85;4.30;;;4.80;1.00;;;;;;5069275;28;20693;-73
2024/01/22 04:39:45;;;;;;;4.50;4.10;;;4.80;1.00;;;;;;5069906;27;20883;-72
2024/01/22 04:42:20;;;;;;;4.80;3.90;;;4.90;1.00;;;;;;5069793;27;20242;-74
2024/01/22 04:44:47;;;;;;;5.70;3.80;;;4.90;1.00;;;;;;5064653;28;20603;-73
2024/01/22 04:47:16;;;;;;;4.25;3.58;;;5.00;1.00;;;;;;5068464;28;20232;-72
2024/01/22 04:49:43;;;;;;;5.40;4.32;;;5.10;1.00;;;;;;5067852;28;20242;-72
2024/01/22 04:52:09;;;;;;;5.18;3.72;;;5.20;1.00;;;;;;5070657;28;20287;-72
2024/01/22 04:54:38;;;;;;;4.90;4.38;;;5.30;1.00;;;;;;5069509;28;20242;-74
2024/01/22 04:57:06;;;;;;;3.67;3.38;;;5.40;1.00;;;;;;5065132;27;20694;-75
2024/01/22 04:59:34;;;;;;;3.80;3.40;;;5.40;1.00;;;;;;5070899;28;20908;-73
2024/01/22 05:02:01;;;;;;;4.35;3.63;;;5.50;1.00;;;;;;5068536;27;20295;-73
2024/01/22 05:04:30;;;;;;;4.68;4.03;;;5.50;1.00;;;;;;5062931;28;20278;-74
2024/01/22 05:06:57;;;;;;;3.95;3.58;;;5.50;1.00;;;;;;5066682;27;20248;-80
2024/01/22 05:09:24;;;;;;;4.10;3.70;;;5.50;1.00;;;;;;5067505;27;20267;-72
2024/01/22 05:11:54;;;;;;;3.75;3.25;;;5.50;1.00;;;;;;5065251;27;20249;-74
2024/01/22 05:14:21;;;;;;;9.00;6.82;;;5.50;1.00;;;;;;5069470;27;20699;-78
2024/01/22 05:16:49;;;;;;;3.90;3.40;;;5.60;1.00;;;;;;5068288;27;20233;-78
2024/01/22 05:19:16;;;;;;;4.22;3.83;;;5.60;1.00;;;;;;5071159;28;20312;-73
2024/01/22 05:21:43;;;;;;;4.07;3.28;;;5.60;1.00;;;;;;5069372;27;20291;-74
2024/01/22 05:24:10;;;;;;;3.65;3.35;;;5.70;1.00;;;;;;5071098;28;20300;-74
2024/01/22 05:26:37;;;;;;;4.07;3.10;;;5.70;1.00;;;;;;5069982;27;20732;-71
2024/01/22 05:29:04;;;;;;;3.83;3.28;;;5.70;1.00;;;;;;5068239;27;20319;-73
2024/01/22 05:31:33;;;;;;;4.15;3.28;;;5.70;1.00;;;;;;5066709;28;20307;-73
2024/01/22 05:34:02;;;;;;;3.70;3.30;;;5.80;1.00;;;;;;5073368;28;20285;-73
2024/01/22 05:36:31;;;;;;;4.32;3.67;;;5.80;1.00;;;;;;5067742;28;20784;-75
2024/01/22 05:38:58;;;;;;;3.42;3.13;;;5.90;1.00;;;;;;5068014;27;20887;-73
2024/01/22 05:41:25;;;;;;;5.40;3.72;;;5.90;1.00;;;;;;5069302;27;20316;-73
2024/01/22 05:43:52;;;;;;;4.60;2.90;;;5.90;1.00;;;;;;5067581;27;20319;-73
2024/01/22 05:46:19;;;;;;;5.68;4.22;;;6.00;1.00;;;;;;5069188;28;20287;-74
2024/01/22 05:48:46;;;;;;;4.13;2.83;;;6.00;1.00;;;;;;5068289;27;20250;-73
2024/01/22 05:51:15;;;;;;;11.63;9.82;;;6.10;1.00;;;;;;5068353;27;20295;-73
2024/01/22 05:53:43;;;;;;;2.47;2.28;;;6.20;1.00;;;;;;5068319;28;20245;-72
2024/01/22 05:56:21;;;;;;;2.90;2.70;;;6.20;1.00;;;;;;5069686;28;20234;-73
2024/01/22 05:58:50;;;;;;;3.92;2.95;;;6.20;1.00;;;;;;5068052;28;20238;-75
2024/01/22 06:01:21;;;;;;;3.13;2.88;;;6.30;1.00;;;;;;5069668;28;21144;-72
2024/01/22 06:03:48;;;;;;;3.67;3.10;;;6.30;1.00;;;;;;5066923;28;20236;-73
2024/01/22 06:06:17;;;;;;;3.17;2.50;;;6.40;1.00;;;;;;5069549;28;20236;-75
2024/01/22 06:08:44;;;;;;;3.10;2.70;;;6.50;1.00;;;;;;5067700;28;20282;-72
2024/01/22 06:11:12;;;;;;;4.13;2.90;;;6.50;1.00;;;;;;5065214;28;20283;-73
2024/01/22 06:13:39;;;;;;;2.67;2.40;;;6.60;1.00;;;;;;5067132;28;20448;-76
2024/01/22 06:16:09;;;;;;;3.67;2.60;;;6.60;1.00;;;;;;5065964;27;20474;-74
2024/01/22 06:18:36;;;;;;;3.27;2.20;;;6.60;1.00;;;;;;5058751;27;20604;-73
2024/01/22 06:21:04;;;;;;;2.93;2.67;;;6.70;1.00;;;;;;5066701;28;20591;-71
2024/01/22 06:23:33;;;;;;;3.45;2.13;;;6.80;1.00;;;;;;5070876;28;20456;-72
2024/01/22 06:26:00;;;;;;;3.92;2.25;;;6.80;1.00;;;;;;5066900;27;20296;-76
2024/01/22 06:28:30;;;;;;;4.53;2.57;;;6.90;1.00;;;;;;5070788;28;20266;-74
2024/01/22 06:30:58;;;;;;;2.80;2.30;;;6.90;1.00;;;;;;5068807;28;21033;-73
2024/01/22 06:33:25;;;;;;;2.37;1.90;;;7.00;1.00;;;;;;5066614;27;20270;-74
2024/01/22 06:35:53;;;;;;;5.07;2.63;;;7.10;1.00;;;;;;5065155;28;20527;-74
2024/01/22 06:38:20;;;;;;;2.87;2.67;;;7.10;1.00;;;;;;5069095;28;20458;-73
2024/01/22 06:40:49;;;;;;;2.70;2.10;;;7.20;1.00;;;;;;5070209;28;20854;-74
2024/01/22 06:43:17;;;;;;;2.20;2.00;;;7.20;1.00;;;;;;5056639;28;20547;-71
2024/01/22 06:45:46;;;;;;;7.47;3.87;;;7.30;1.00;;;;;;5069774;28;20525;-73
2024/01/22 06:48:13;;;;;;;2.50;1.90;;;7.30;1.00;;;;;;5067819;28;20524;-72
2024/01/22 06:50:40;;;;;;;2.53;2.23;;;7.30;1.00;;;;;;5064436;28;20962;-74
2024/01/22 06:53:09;;;;;;;5.10;2.60;;;7.30;1.00;;;;;;5066807;28;20452;-74
2024/01/22 06:55:38;;;;;;;2.70;2.43;;;7.40;1.00;;;;;;5068396;28;20464;-73
2024/01/22 06:58:09;;;;;;;2.30;2.10;;;7.50;1.00;;;;;;5068377;28;20454;-73
2024/01/22 07:00:36;;;;;;;3.70;2.60;;;7.50;1.00;;;;;;5067855;27;20576;-73
2024/01/22 07:03:04;;;;;;;2.50;2.30;;;7.50;1.00;;;;;;5067667;27;20515;-75
2024/01/22 07:05:33;;;;;;;3.33;2.23;;;7.50;1.00;;;;;;5069954;28;20467;-76
2024/01/22 07:08:00;;;;;;;2.75;1.55;;;7.50;1.00;;;;;;5064215;27;20515;-72
2024/01/22 07:10:28;;;;;;;3.77;2.40;;;7.50;1.00;;;;;;5071270;28;20251;-75
2024/01/22 07:12:58;;;;;;;2.20;2.00;;;7.50;1.00;;;;;;5072884;28;21082;-73
2024/01/22 07:15:26;;;;;;;3.00;2.70;;;7.50;1.00;;;;;;5070383;28;21387;-72
2024/01/22 07:17:53;;;;;;;4.30;2.37;;;7.50;1.00;;;;;;5071402;27;20462;-74
2024/01/22 07:20:21;;;;;;;2.57;1.90;;;7.50;1.00;;;;;;5073483;28;20567;-73
2024/01/22 07:22:48;;;;;;;2.33;1.97;;;7.60;1.00;;;;;;5070939;28;20459;-71
2024/01/22 07:25:15;;;;;;;3.33;3.03;;;7.60;1.00;;;;;;5068657;28;20478;-74
2024/01/22 07:27:44;;;;;;;2.25;2.05;;;7.60;1.00;;;;;;5071036;28;21119;-73
2024/01/22 07:30:12;;;;;;;2.60;2.33;;;7.60;1.00;;;;;;5062264;28;20240;-74
2024/01/22 07:32:42;;;;;;;2.30;2.10;;;7.50;1.00;;;;;;5070271;28;20459;-73
2024/01/22 07:35:11;;;;;;;3.93;2.07;;;7.60;1.00;;;;;;5068660;27;20472;-76
2024/01/22 07:37:41;;;;;;;3.70;2.20;;;7.50;1.00;;;;;;5071953;28;20428;-75
2024/01/22 07:40:10;;;;;;;3.50;2.30;;;7.50;1.00;;;;;;5064115;28;20239;-76
2024/01/22 07:42:38;;;;;;;3.57;2.10;;;7.50;1.00;;;;;;5070437;28;21139;-76
2024/01/22 07:45:07;;;;;;;1.90;1.80;;;7.50;1.00;;;;;;5070513;28;20980;-76
2024/01/22 07:47:34;;;;;;;1.70;1.60;;;7.50;1.00;;;;;;5070447;28;21047;-75
2024/01/22 07:50:05;;;;;;;3.00;2.28;;;7.50;1.00;;;;;;5051072;28;20240;-77
2024/01/22 07:52:36;;;;;;;2.50;2.15;;;7.60;1.00;;;;;;5070205;27;20247;-76
2024/01/22 07:55:04;;;;;;;2.20;1.95;;;7.60;1.00;;;;;;5071021;28;20240;-75
2024/01/22 07:57:30;;;;;;;2.30;1.80;;;7.60;1.00;;;;;;5071875;28;20243;-75
2024/01/22 07:59:57;;;;;;;2.33;1.50;;;7.60;1.00;;;;;;5067961;27;20267;-74
2024/01/22 08:02:24;;;;;;;2.63;1.90;;;7.60;1.00;;;;;;5056004;28;20492;-74
2024/01/22 08:04:51;;;;;;;2.60;2.40;;;7.70;1.00;;;;;;5064237;28;20605;-74
2024/01/22 08:07:20;;;;;;;3.20;1.67;;;7.70;1.00;;;;;;5069424;27;20469;-75
2024/01/22 08:09:47;;;;;;;2.03;1.83;;;7.70;1.00;;;;;;5069690;27;20260;-74
2024/01/22 08:12:14;;;;;;;3.72;2.00;;;7.70;1.00;;;;;;5070725;28;20504;-74
2024/01/22 08:14:42;;;;;;;4.30;1.50;;;7.80;1.00;;;;;;5065497;28;20313;-76
2024/01/22 08:17:12;;;;;;;4.10;1.63;;;7.60;1.00;;;;;;5067642;28;20452;-75
2024/01/22 08:19:39;;;;;;;3.03;1.70;;;7.30;1.00;;;;;;5063548;28;20548;-76
2024/01/22 08:22:06;;;;;;;2.72;1.77;;;7.00;1.00;;;;;;5068022;27;20451;-76
2024/01/22 08:24:34;;;;;;;2.35;2.05;;;6.80;1.00;;;;;;5060078;28;20243;-74
2024/01/22 08:27:02;;;;;;;3.25;1.88;;;6.60;1.00;;;;;;5069941;27;20250;-76
2024/01/22 08:29:29;;;;;;;7.90;2.80;;;6.50;1.00;;;;;;5069453;28;20722;-74
2024/01/22 08:31:56;;;;;;;4.35;2.10;;;6.40;1.00;;;;;;5069489;28;21520;-76
2024/01/22 08:34:26;;;;;;;2.90;2.60;;;6.30;1.00;;;;;;5070602;28;20427;-74
2024/01/22 08:36:53;;;;;;;2.10;1.67;;;6.20;1.00;;;;;;5070742;28;20721;-75
2024/01/22 08:39:20;;;;;;;3.05;2.42;;;6.20;1.00;;;;;;5069433;27;20299;-75
2024/01/22 08:41:48;;;;;;;2.00;1.77;;;6.10;1.00;;;;;;5069807;28;20334;-74
2024/01/22 08:44:16;;;;;;;11.05;4.72;;;6.10;1.00;;;;;;5069736;28;20325;-75
2024/01/22 08:46:43;;;;;;;2.88;1.88;;;6.10;1.00;;;;;;5059875;28;20306;-75
2024/01/22 08:49:10;;;;;;;3.80;2.22;;;6.10;1.00;;;;;;5052177;28;21098;-75
2024/01/22 08:51:37;;;;;;;3.13;2.83;;;6.00;1.00;;;;;;5066839;28;20236;-76
2024/01/22 08:54:05;;;;;;;2.30;2.10;;;6.00;1.00;;;;;;5069001;27;20242;-74
2024/01/22 08:56:33;;;;;;;2.10;1.73;;;6.00;1.00;;;;;;5070279;27;21204;-76
2024/01/22 08:59:01;;;;;;;2.10;1.90;;;6.00;1.00;;;;;;5070649;27;20300;-75
2024/01/22 09:01:28;;;;;;;6.25;2.33;;;6.00;1.00;;;;;;5067824;28;20236;-76
2024/01/22 09:03:55;;;;;;;4.25;2.10;;;6.00;1.00;;;;;;5070885;27;20268;-76
2024/01/22 09:06:22;;;;;;;2.40;2.20;;;6.00;1.00;;;;;;5068641;28;20269;-80
2024/01/22 09:08:49;;;;;;;2.53;2.33;;;6.00;1.00;;;;;;5072909;27;20763;-77
2024/01/22 09:11:16;;;;;;;4.85;2.42;;;6.10;1.00;;;;;;5072018;27;20283;-76
2024/01/22 09:13:43;;;;;;;3.88;2.63;;;6.10;1.00;;;;;;5071173;28;21024;-77
2024/01/22 09:16:14;;;;;;;2.60;2.15;;;6.10;1.00;;;;;;5066677;28;20346;-75
2024/01/22 09:18:42;;;;;;;2.75;2.50;;;6.10;1.00;;;;;;5071026;28;20242;-77
2024/01/22 09:21:09;;;;;;;3.20;2.90;;;6.10;1.00;;;;;;5071378;27;20239;-77
2024/01/22 09:23:36;;;;;;;3.42;2.42;;;6.10;1.00;;;;;;5070580;28;20247;-76
2024/01/22 09:26:03;;;;;;;4.45;2.50;;;6.10;1.00;;;;;;5068278;27;20329;-76
2024/01/22 09:28:31;;;;;;;2.78;2.38;;;6.10;1.00;;;;;;5068961;27;20236;-76
2024/01/22 09:31:00;;;;;;;4.57;2.67;;;6.10;1.00;;;;;;5070170;28;20249;-77
2024/01/22 09:33:28;;;;;;;5.47;2.92;;;6.10;1.00;;;;;;5067836;28;20240;-76
2024/01/22 09:35:56;;;;;;;2.67;2.03;;;6.20;1.00;;;;;;5066087;28;20274;-75
2024/01/22 09:38:23;;;;;;;4.28;2.40;;;6.20;1.00;;;;;;5068360;27;20332;-74
2024/01/22 09:40:51;;;;;;;2.67;1.92;;;6.20;1.00;;;;;;5067142;28;20346;-74
2024/01/22 09:43:18;;;;;;;3.30;2.10;;;6.20;1.00;;;;;;5069273;28;20230;-75
2024/01/22 09:45:50;;;;;;;2.58;2.30;;;6.30;1.00;;;;;;5066611;28;20342;-75
2024/01/22 09:48:18;;;;;;;2.47;1.88;;;6.30;1.00;;;;;;5067966;28;20672;-75
2024/01/22 09:50:52;;;;;;;3.38;2.65;;;6.30;1.00;;;;;;5066152;28;20720;-77
2024/01/22 09:53:21;;;;;;;2.80;2.45;;;6.30;1.00;;;;;;5063247;28;20242;-75
2024/01/22 09:55:49;;;;;;;3.13;2.22;;;6.30;1.00;;;;;;5071502;27;20240;-73
2024/01/22 09:58:28;;;;;;;2.70;2.28;;;6.40;1.00;;;;;;5069139;28;20236;-74
2024/01/22 10:00:56;;;;;;;2.40;2.00;;;6.40;1.00;;;;;;5068458;28;20303;-73
2024/01/22 10:03:23;;;;;;;3.20;2.05;;;6.50;1.00;;;;;;5069920;28;20249;-72
2024/01/22 10:05:53;;;;;;;3.78;2.50;;;6.60;1.00;;;;;;5067972;27;20270;-75
2024/01/22 10:08:20;;;;;;;4.80;2.35;;;6.60;1.00;;;;;;5070989;28;21109;-73
2024/01/22 10:10:47;;;;;;;2.30;1.85;;;6.70;1.00;;;;;;5062919;28;20247;-75
2024/01/22 10:13:14;;;;;;;2.35;2.05;;;6.80;1.00;;;;;;5068338;28;20968;-73
2024/01/22 10:15:42;;;;;;;3.95;1.92;;;6.90;1.00;;;;;;5067864;28;20247;-72
2024/01/22 10:18:11;;;;;;;2.08;1.65;;;6.90;1.00;;;;;;5066490;28;20988;-75
2024/01/22 10:20:40;;;;;;;2.57;2.33;;;7.00;1.00;;;;;;5070257;28;20255;-76
2024/01/22 10:23:10;;;;;;;2.47;2.00;;;7.00;1.00;;;;;;5070299;28;20515;-77
2024/01/22 10:25:37;;;;;;;2.00;1.80;;;7.10;1.00;;;;;;5068830;27;20756;-75
2024/01/22 10:28:12;;;;;;;3.05;2.03;;;7.10;1.00;;;;;;5076707;28;20240;-73
2024/01/22 10:30:41;;;;;;;3.17;2.10;;;7.20;1.00;;;;;;5073779;28;20242;-72
2024/01/22 10:33:13;;;;;;;2.57;1.63;;;7.30;1.00;;;;;;5068446;28;21055;-73
2024/01/22 10:35:41;;;;;;;2.30;1.70;;;7.30;1.00;;;;;;5069623;28;20521;-73
2024/01/22 10:38:20;;;;;;;2.97;1.97;;;7.40;1.00;;;;;;5068657;27;20244;-77
2024/01/22 10:40:48;;;;;;;4.47;1.77;;;7.50;1.00;;;;;;5071024;28;20881;-73
2024/01/22 10:43:19;;;;;;;3.00;2.00;;;7.50;1.00;;;;;;5068927;28;20466;-72
2024/01/22 10:45:48;;;;;;;3.00;1.60;;;7.50;1.00;;;;;;5073134;28;20513;-73
2024/01/22 10:48:18;;;;;;;2.60;2.40;;;7.50;1.00;;;;;;5073961;27;20470;-72
2024/01/22 10:50:45;;;;;;;2.60;2.00;;;7.50;1.00;;;;;;5075339;27;20474;-72
2024/01/22 10:53:17;;;;;;;2.07;1.87;;;7.60;1.00;;;;;;5059602;27;20459;-74
2024/01/22 10:55:53;;;;;;;2.40;1.70;;;7.70;1.00;;;;;;5069439;27;20471;-73
2024/01/22 10:58:25;;;;;;;3.23;1.60;;;7.80;1.00;;;;;;5061782;28;20522;-76
2024/01/22 11:00:55;;;;;;;3.77;2.63;;;7.90;1.00;;;;;;5069000;28;20486;-78
2024/01/22 11:03:26;;;;;;;2.97;2.03;;;8.00;1.00;;;;;;5055510;28;20529;-74
2024/01/22 11:05:58;;;;;;;1.73;1.50;;;8.10;1.00;;;;;;5088619;28;20487;-78
2024/01/22 11:08:29;;;;;;;1.87;1.50;;;8.20;1.00;;;;;;5093934;27;20456;-81
2024/01/22 11:10:57;;;;;;;4.50;2.07;;;8.20;1.00;;;;;;5091207;27;21875;-82
2024/01/22 11:13:24;;;;;;;2.07;1.87;;;8.30;1.00;;;;;;5091871;28;20464;-81
2024/01/22 11:15:55;;;;;;;2.60;1.47;;;8.40;1.00;;;;;;5088024;28;20412;-81
2024/01/22 11:18:23;;;;;;;2.30;1.67;;;8.50;1.00;;;;;;5089225;28;20428;-81
2024/01/22 11:21:19;;;;;;;2.63;1.70;;;8.60;1.00;;;;;;5087757;27;20419;-78
2024/01/22 11:24:04;;;;;;;1.87;1.60;;;8.70;1.00;;;;;;5087693;28;20550;-81
2024/01/22 11:26:33;;;;;;;1.70;1.30;;;8.90;1.00;;;;;;5075972;28;20455;-80
2024/01/22 11:29:07;;;;;;;1.90;1.53;;;9.00;1.00;;;;;;5087847;28;20424;-82
2024/01/22 11:31:35;;;;;;;2.50;1.63;;;9.10;1.00;;;;;;5090171;28;20471;-81
2024/01/22 11:34:03;;;;;;;1.90;1.33;;;9.20;1.00;;;;;;5084054;27;20518;-82
2024/01/22 11:36:53;;;;;;;2.00;1.30;;;9.20;1.00;;;;;;5086459;28;21338;-80
2024/01/22 11:39:46;;;;;;;1.83;1.27;;;9.30;1.00;;;;;;5080802;28;20471;-82
2024/01/22 11:42:28;;;;;;;1.77;1.37;;;9.30;1.00;;;;;;5072755;28;20451;-83
2024/01/22 11:44:56;;;;;;;2.53;1.43;;;9.40;1.00;;;;;;5079869;27;21082;-82
2024/01/22 11:47:24;;;;;;;3.50;1.70;;;9.50;1.00;;;;;;5078915;28;20525;-80
2024/01/22 11:50:00;;;;;;;2.70;1.40;;;9.60;1.00;;;;;;5075096;28;20479;-76
2024/01/22 11:52:27;;;;;;;2.17;1.60;;;9.90;1.00;;;;;;5057007;28;20510;-85
2024/01/22 11:54:57;;;;;;;3.10;1.90;;;10.00;1.00;;;;;;5073346;28;20559;-82
2024/01/22 11:57:27;;;;;;;2.00;1.40;;;10.10;1.00;;;;;;5080025;28;20416;-81
2024/01/22 12:00:04;;;;;;;1.40;1.30;;;10.10;1.00;;;;;;5078571;27;20542;-82
2024/01/22 12:02:31;;;;;;;1.60;1.50;;;10.20;1.00;;;;;;5077438;27;20455;-83
2024/01/22 12:05:04;;;;;;;2.90;1.50;;;10.40;1.00;;;;;;5070540;27;20562;-82
2024/01/22 12:07:38;;;;;;;3.03;1.60;;;10.50;1.00;;;;;;5079968;27;20491;-82
2024/01/22 12:10:20;;;;;;;1.73;1.47;;;10.40;1.00;;;;;;5070478;28;20546;-82
2024/01/22 12:12:55;;;;;;;1.67;1.43;;;10.40;1.00;;;;;;5071592;27;20548;-82
2024/01/22 12:15:25;;;;;;;5.10;1.80;;;10.40;1.00;;;;;;5068712;28;21285;-74
2024/01/22 12:17:53;;;;;;;2.67;1.60;;;10.40;1.00;;;;;;5068465;28;20534;-73
2024/01/22 12:20:21;;;;;;;3.07;1.93;;;10.40;1.00;;;;;;5071681;28;20451;-74
2024/01/22 12:22:57;;;;;;;1.63;1.43;;;10.50;1.00;;;;;;5071814;28;20455;-74
2024/01/22 12:25:35;;;;;;;2.43;1.63;;;10.60;1.00;;;;;;5070711;28;20536;-75
2024/01/22 12:28:04;;;;;;;1.60;1.50;;;10.60;1.00;;;;;;5070169;27;20561;-75
2024/01/22 12:30:34;;;;;;;1.40;1.30;;;10.60;1.00;;;;;;5068537;28;20914;-74
2024/01/22 12:33:01;;;;;;;2.03;1.50;;;10.50;1.00;;;;;;5071952;27;21305;-75
2024/01/22 12:35:28;;;;;;;2.10;1.60;;;10.50;1.00;;;;;;5058680;28;20479;-75
2024/01/22 12:37:55;;;;;;;2.53;2.33;;;10.40;1.00;;;;;;5057529;28;20459;-74
2024/01/22 12:40:23;;;;;;;1.93;1.00;;;10.50;1.00;;;;;;5069350;27;20459;-75
2024/01/22 12:42:59;;;;;;;1.70;1.60;;;10.40;1.00;;;;;;5070068;27;20607;-76
2024/01/22 12:45:26;;;;;;;1.50;1.40;;;10.30;1.00;;;;;;5073648;27;21139;-76
2024/01/22 12:47:53;;;;;;;1.57;1.37;;;10.20;1.00;;;;;;5068093;28;20471;-74
2024/01/22 12:50:20;;;;;;;1.60;1.20;;;10.20;1.00;;;;;;5072207;28;20618;-73
2024/01/22 12:52:50;;;;;;;2.67;1.47;;;10.20;1.00;;;;;;5071309;28;20518;-73
2024/01/22 12:55:17;;;;;;;1.40;1.30;;;10.20;1.00;;;;;;5067125;28;20447;-74
2024/01/22 12:57:44;;;;;;;3.70;2.53;;;10.20;1.00;;;;;;5069266;28;21214;-74
2024/01/22 13:00:15;;;;;;;2.27;1.20;;;10.10;1.00;;;;;;5067660;27;20527;-73
2024/01/22 13:02:43;;;;;;;2.20;2.00;;;10.10;1.00;;;;;;5068300;28;20963;-75
2024/01/22 13:05:10;;;;;;;1.73;1.23;;;10.20;1.00;;;;;;5067186;27;20459;-78
2024/01/22 13:07:39;;;;;;;1.77;1.40;;;10.20;1.00;;;;;;5069689;28;20472;-74
2024/01/22 13:10:07;;;;;;;1.40;1.30;;;10.20;1.00;;;;;;5070134;28;20482;-76
2024/01/22 13:12:35;;;;;;;1.90;1.67;;;10.20;1.00;;;;;;5069669;27;20463;-74